createdAt,value
2022-10-03T00:02:35.677Z,2
2022-10-03T00:07:35.633Z,2
2022-10-03T00:12:35.616Z,2
2022-10-03T00:17:35.603Z,2
2022-10-03T00:22:35.854Z,3
2022-10-03T00:27:35.740Z,3
2022-10-03T00:32:35.798Z,2
2022-10-03T00:37:35.667Z,3
2022-10-03T00:42:35.747Z,3
2022-10-03T00:47:39.901Z,4
2022-10-03T00:52:35.665Z,2
2022-10-03T00:57:35.679Z,2
2022-10-03T01:02:36.001Z,3
2022-10-03T01:07:35.722Z,2
2022-10-03T01:12:35.709Z,3
2022-10-03T01:17:35.731Z,2
2022-10-03T01:22:35.858Z,2
2022-10-03T01:27:35.769Z,2
2022-10-03T01:32:35.814Z,2
2022-10-03T01:37:35.823Z,2
2022-10-03T01:42:35.825Z,2
2022-10-03T01:47:35.815Z,2
2022-10-03T01:52:35.771Z,2
2022-10-03T01:57:35.948Z,2
2022-10-03T02:02:35.809Z,2
2022-10-03T02:07:35.823Z,2
2022-10-03T02:12:35.820Z,2
2022-10-03T02:17:36.029Z,2
2022-10-03T02:22:35.875Z,2
2022-10-03T02:27:35.914Z,3
2022-10-03T02:32:35.859Z,3
2022-10-03T02:37:35.915Z,3
2022-10-03T02:42:35.893Z,3
2022-10-03T02:47:41.484Z,4
2022-10-03T02:52:35.905Z,3
2022-10-03T02:57:35.933Z,3
2022-10-03T03:02:35.953Z,3
2022-10-03T03:07:36.011Z,3
2022-10-03T03:12:39.211Z,3
2022-10-03T03:17:35.950Z,4
2022-10-03T03:22:36.027Z,3
2022-10-03T03:27:36.155Z,4
2022-10-03T03:32:35.994Z,4
2022-10-03T03:37:36.069Z,5
2022-10-03T03:42:36.095Z,4
2022-10-03T03:47:36.054Z,4
2022-10-03T03:52:36.067Z,4
2022-10-03T03:57:36.261Z,4
2022-10-03T04:02:36.151Z,4
2022-10-03T04:07:36.121Z,3
2022-10-03T04:12:36.105Z,2
2022-10-03T04:17:36.103Z,2
2022-10-03T04:22:36.104Z,3
2022-10-03T04:27:36.122Z,2
2022-10-03T04:32:36.236Z,2
2022-10-03T04:37:36.140Z,2
2022-10-03T04:42:36.198Z,2
2022-10-03T04:47:36.154Z,2
2022-10-03T04:52:36.196Z,2
2022-10-03T04:57:36.257Z,2
2022-10-03T05:02:36.222Z,2
2022-10-03T05:07:36.190Z,2
2022-10-03T05:12:36.223Z,1
2022-10-03T05:17:36.181Z,1
2022-10-03T05:22:36.179Z,2
2022-10-03T05:27:36.274Z,2
2022-10-03T05:32:36.185Z,2
2022-10-03T05:37:36.229Z,2
2022-10-03T05:42:36.253Z,4
2022-10-03T05:47:36.264Z,2
2022-10-03T05:52:36.251Z,2
2022-10-03T05:57:36.241Z,2
2022-10-03T06:02:36.336Z,1
2022-10-03T06:07:36.337Z,2
2022-10-03T06:12:36.289Z,2
2022-10-03T06:17:39.743Z,2
2022-10-03T06:22:36.298Z,1
2022-10-03T06:27:36.382Z,2
2022-10-03T06:32:36.323Z,2
2022-10-03T06:37:36.313Z,2
2022-10-03T06:42:36.356Z,3
2022-10-03T06:47:36.345Z,3
2022-10-03T06:52:36.371Z,3
2022-10-03T06:57:36.588Z,3
2022-10-03T07:02:36.400Z,2
2022-10-03T07:07:36.392Z,3
2022-10-03T07:12:36.396Z,2
2022-10-03T07:17:36.409Z,3
2022-10-03T07:22:36.484Z,2
2022-10-03T07:27:36.502Z,3
2022-10-03T07:32:36.429Z,2
2022-10-03T07:37:36.441Z,3
2022-10-03T07:42:36.428Z,3
2022-10-03T07:47:36.497Z,5
2022-10-03T07:52:36.521Z,3
2022-10-03T07:57:36.549Z,2
2022-10-03T08:02:42.192Z,6
2022-10-03T08:07:36.522Z,2
2022-10-03T08:12:36.536Z,2
2022-10-03T08:17:36.537Z,2
2022-10-03T08:22:36.741Z,2
2022-10-03T08:27:36.553Z,2
2022-10-03T08:32:36.551Z,2
2022-10-03T08:37:36.546Z,2
2022-10-03T08:42:36.592Z,2
2022-10-03T08:47:36.659Z,2
2022-10-03T08:52:36.646Z,1
2022-10-03T08:57:36.653Z,2
2022-10-03T09:02:37.050Z,2
2022-10-03T09:07:36.611Z,2
2022-10-03T09:12:36.641Z,2
2022-10-03T09:17:42.147Z,2
2022-10-03T09:22:36.638Z,2
2022-10-03T09:27:36.638Z,2
2022-10-03T09:32:36.707Z,1
2022-10-03T09:37:36.660Z,2
2022-10-03T09:42:36.655Z,2
2022-10-03T09:47:36.694Z,3
2022-10-03T09:52:36.785Z,2
2022-10-03T09:57:36.767Z,2
2022-10-03T10:02:36.727Z,2
2022-10-03T10:07:36.765Z,2
2022-10-03T10:12:36.733Z,3
2022-10-03T10:17:36.814Z,2
2022-10-03T10:22:36.747Z,2
2022-10-03T10:27:36.822Z,2
2022-10-03T10:32:36.780Z,2
2022-10-03T10:37:36.804Z,2
2022-10-03T10:42:36.842Z,2
2022-10-03T10:47:37.449Z,2
2022-10-03T10:52:36.783Z,3
2022-10-03T10:57:36.852Z,2
2022-10-03T11:02:36.966Z,2
2022-10-03T11:07:37.045Z,2
2022-10-03T11:12:36.848Z,3
2022-10-03T11:17:36.908Z,2
2022-10-03T11:22:37.149Z,4
2022-10-03T11:27:36.890Z,2
2022-10-03T11:32:36.910Z,2
2022-10-03T11:37:36.988Z,1
2022-10-03T11:42:36.991Z,1
2022-10-03T11:47:36.883Z,1
2022-10-03T11:52:36.890Z,2
2022-10-03T11:57:37.044Z,1
2022-10-03T12:02:37.094Z,2
2022-10-03T12:07:36.981Z,2
2022-10-03T12:12:36.968Z,1
2022-10-03T12:17:37.001Z,1
2022-10-03T12:22:36.531Z,2
2022-10-03T12:27:37.115Z,2
2022-10-03T12:32:37.004Z,2
2022-10-03T12:37:37.139Z,2
2022-10-03T12:42:37.069Z,2
2022-10-03T12:47:54.690Z,2
2022-10-03T12:52:37.034Z,2
2022-10-03T12:57:37.107Z,2
2022-10-03T13:02:37.222Z,2
2022-10-03T13:07:37.055Z,1
2022-10-03T13:12:37.350Z,2
2022-10-03T13:17:37.079Z,2
2022-10-03T13:22:37.049Z,2
2022-10-03T13:27:37.201Z,2
2022-10-03T13:32:37.102Z,4
2022-10-03T13:37:37.135Z,2
2022-10-03T13:42:37.111Z,2
2022-10-03T13:47:37.335Z,2
2022-10-03T13:52:37.153Z,3
2022-10-03T13:57:37.204Z,2
2022-10-03T14:02:37.275Z,2
2022-10-03T14:07:37.147Z,3
2022-10-03T14:12:54.703Z,2
2022-10-03T14:17:37.204Z,2
2022-10-03T14:22:37.196Z,2
2022-10-03T14:27:37.231Z,6
2022-10-03T14:32:47.536Z,4
2022-10-03T14:37:37.489Z,2
2022-10-03T14:42:37.265Z,4
2022-10-03T14:47:37.361Z,3
2022-10-03T14:52:37.268Z,2
2022-10-03T14:57:53.096Z,9
2022-10-03T15:02:37.362Z,5
2022-10-03T15:07:37.318Z,4
2022-10-03T15:12:37.296Z,7
2022-10-03T15:17:37.408Z,3
2022-10-03T15:22:37.307Z,3
2022-10-03T15:27:37.489Z,2
2022-10-03T15:32:37.351Z,3
2022-10-03T15:37:37.579Z,2
2022-10-03T15:42:37.325Z,2
2022-10-03T15:47:37.349Z,2
2022-10-03T15:52:37.414Z,2
2022-10-03T15:57:37.403Z,2
2022-10-03T16:02:37.502Z,3
2022-10-03T16:07:37.382Z,3
2022-10-03T16:12:37.523Z,3
2022-10-03T16:17:37.439Z,3
2022-10-03T16:22:37.426Z,3
2022-10-03T16:27:37.459Z,3
2022-10-03T16:32:37.466Z,2
2022-10-03T16:37:37.496Z,3
2022-10-03T16:42:37.533Z,3
2022-10-03T16:47:37.470Z,3
2022-10-03T16:52:37.546Z,3
2022-10-03T16:57:37.513Z,4
2022-10-03T17:02:37.689Z,3
2022-10-03T17:07:37.512Z,4
2022-10-03T17:12:37.504Z,2
2022-10-03T17:17:37.758Z,2
2022-10-03T17:22:37.509Z,4
2022-10-03T17:27:37.538Z,2
2022-10-03T17:32:37.567Z,2
2022-10-03T17:37:37.659Z,3
2022-10-03T17:42:37.570Z,5
2022-10-03T17:47:42.565Z,4
2022-10-03T17:52:37.576Z,4
2022-10-03T17:57:38.054Z,3
2022-10-03T18:02:37.651Z,3
2022-10-03T18:07:37.663Z,4
2022-10-03T18:12:37.612Z,3
2022-10-03T18:17:37.723Z,3
2022-10-03T18:22:41.065Z,3
2022-10-03T18:27:37.680Z,4
2022-10-03T18:32:37.653Z,4
2022-10-03T18:37:37.870Z,4
2022-10-03T18:42:37.677Z,3
2022-10-03T18:47:37.749Z,4
2022-10-03T18:52:37.791Z,3
2022-10-03T18:57:37.806Z,4
2022-10-03T19:02:37.706Z,3
2022-10-03T19:07:37.699Z,4
2022-10-03T19:12:37.720Z,5
2022-10-03T19:17:37.836Z,5
2022-10-03T19:22:37.837Z,4
2022-10-03T19:27:37.827Z,4
2022-10-03T19:32:37.777Z,4
2022-10-03T19:37:40.809Z,4
2022-10-03T19:42:38.533Z,6
2022-10-03T19:47:37.860Z,5
2022-10-03T19:52:37.875Z,5
2022-10-03T19:57:38.098Z,5
2022-10-03T20:02:37.879Z,4
2022-10-03T20:07:37.818Z,4
2022-10-03T20:12:41.575Z,4
2022-10-03T20:17:38.002Z,5
2022-10-03T20:22:37.901Z,4
2022-10-03T20:27:37.874Z,4
2022-10-03T20:32:37.924Z,5
2022-10-03T20:37:37.906Z,5
2022-10-03T20:42:37.930Z,5
2022-10-03T20:47:38.002Z,4
2022-10-03T20:52:38.138Z,5
2022-10-03T20:57:37.969Z,6
2022-10-03T21:02:38.081Z,5
2022-10-03T21:07:38.044Z,5
2022-10-03T21:12:37.981Z,6
2022-10-03T21:17:38.039Z,6
2022-10-03T21:22:38.097Z,5
2022-10-03T21:27:38.013Z,5
2022-10-03T21:32:38.053Z,5
2022-10-03T21:37:38.161Z,6
2022-10-03T21:42:38.306Z,6
2022-10-03T21:47:38.126Z,5
2022-10-03T21:52:38.118Z,5
2022-10-03T21:57:38.121Z,4
2022-10-03T22:02:38.136Z,5
2022-10-03T22:07:38.070Z,5
2022-10-03T22:12:38.118Z,5
2022-10-03T22:17:38.117Z,4
2022-10-03T22:22:38.082Z,4
2022-10-03T22:27:38.185Z,5
2022-10-03T22:32:38.134Z,5
2022-10-03T22:37:38.243Z,5
2022-10-03T22:42:38.133Z,5
2022-10-03T22:47:38.278Z,5
2022-10-03T22:52:38.125Z,5
2022-10-03T22:57:38.182Z,5
2022-10-03T23:02:38.208Z,4
2022-10-03T23:07:38.225Z,6
2022-10-03T23:12:38.163Z,4
2022-10-03T23:17:38.219Z,5
2022-10-03T23:22:38.267Z,5
2022-10-03T23:27:38.289Z,5
2022-10-03T23:32:38.375Z,6
2022-10-03T23:37:38.434Z,5
2022-10-03T23:42:38.290Z,5
2022-10-03T23:47:38.277Z,5
2022-10-03T23:52:38.309Z,5
2022-10-03T23:57:38.349Z,7
